sensor_id;sensor_type;location;lat;lon;timestamp;temperature;humidity
21353;DHT22;10834;52.268;6.770;2022-09-09T00:00:36;21.70;71.70
21353;DHT22;10834;52.268;6.770;2022-09-09T00:03:26;21.60;71.70
21353;DHT22;10834;52.268;6.770;2022-09-09T00:06:30;21.60;71.80
21353;DHT22;10834;52.268;6.770;2022-09-09T00:09:22;21.60;71.90
21353;DHT22;10834;52.268;6.770;2022-09-09T00:15:12;21.60;72.00
21353;DHT22;10834;52.268;6.770;2022-09-09T00:21:05;21.50;72.10
21353;DHT22;10834;52.268;6.770;2022-09-09T00:23:54;21.50;72.20
21353;DHT22;10834;52.268;6.770;2022-09-09T00:26:45;21.50;72.20
21353;DHT22;10834;52.268;6.770;2022-09-09T00:29:51;21.50;72.20
21353;DHT22;10834;52.268;6.770;2022-09-09T00:32:40;21.40;72.20
21353;DHT22;10834;52.268;6.770;2022-09-09T00:35:51;21.40;72.20
21353;DHT22;10834;52.268;6.770;2022-09-09T00:38:55;21.40;72.30
21353;DHT22;10834;52.268;6.770;2022-09-09T00:44:59;21.40;72.40
21353;DHT22;10834;52.268;6.770;2022-09-09T00:47:50;21.40;72.40
21353;DHT22;10834;52.268;6.770;2022-09-09T00:51:02;21.30;72.40
21353;DHT22;10834;52.268;6.770;2022-09-09T00:54:33;21.30;72.40
21353;DHT22;10834;52.268;6.770;2022-09-09T00:57:33;21.30;72.50
21353;DHT22;10834;52.268;6.770;2022-09-09T01:03:54;21.30;72.60
21353;DHT22;10834;52.268;6.770;2022-09-09T01:06:40;21.30;72.70
21353;DHT22;10834;52.268;6.770;2022-09-09T01:09:32;21.20;72.70
21353;DHT22;10834;52.268;6.770;2022-09-09T01:15:22;21.20;72.70
21353;DHT22;10834;52.268;6.770;2022-09-09T01:18:17;21.20;72.80
21353;DHT22;10834;52.268;6.770;2022-09-09T01:27:58;21.20;72.90
21353;DHT22;10834;52.268;6.770;2022-09-09T01:30:45;21.10;72.90
21353;DHT22;10834;52.268;6.770;2022-09-09T01:33:32;21.10;73.70
21353;DHT22;10834;52.268;6.770;2022-09-09T01:36:23;21.10;73.00
21353;DHT22;10834;52.268;6.770;2022-09-09T01:39:11;21.10;73.00
21353;DHT22;10834;52.268;6.770;2022-09-09T01:41:58;21.10;73.00
21353;DHT22;10834;52.268;6.770;2022-09-09T01:44:44;21.10;73.00
21353;DHT22;10834;52.268;6.770;2022-09-09T01:47:30;21.10;73.10
21353;DHT22;10834;52.268;6.770;2022-09-09T01:50:17;21.00;73.00
21353;DHT22;10834;52.268;6.770;2022-09-09T01:53:03;21.00;73.00
21353;DHT22;10834;52.268;6.770;2022-09-09T01:55:58;21.00;73.10
21353;DHT22;10834;52.268;6.770;2022-09-09T02:02:07;21.00;73.10
21353;DHT22;10834;52.268;6.770;2022-09-09T02:05:16;21.00;73.20
21353;DHT22;10834;52.268;6.770;2022-09-09T02:08:14;20.90;73.10
21353;DHT22;10834;52.268;6.770;2022-09-09T02:11:11;20.90;73.10
21353;DHT22;10834;52.268;6.770;2022-09-09T02:14:06;20.90;73.10
21353;DHT22;10834;52.268;6.770;2022-09-09T02:17:08;20.90;73.10
21353;DHT22;10834;52.268;6.770;2022-09-09T02:20:01;20.90;73.10
21353;DHT22;10834;52.268;6.770;2022-09-09T02:22:50;20.90;73.10
21353;DHT22;10834;52.268;6.770;2022-09-09T02:25:37;20.90;73.20
21353;DHT22;10834;52.268;6.770;2022-09-09T02:28:24;20.90;73.10
21353;DHT22;10834;52.268;6.770;2022-09-09T02:31:12;20.80;73.00
21353;DHT22;10834;52.268;6.770;2022-09-09T02:34:01;20.90;73.20
21353;DHT22;10834;52.268;6.770;2022-09-09T02:36:50;20.80;73.00
21353;DHT22;10834;52.268;6.770;2022-09-09T02:39:38;20.80;73.80
21353;DHT22;10834;52.268;6.770;2022-09-09T02:42:24;20.80;73.10
21353;DHT22;10834;52.268;6.770;2022-09-09T02:45:12;20.80;73.00
21353;DHT22;10834;52.268;6.770;2022-09-09T02:51:18;20.80;73.00
21353;DHT22;10834;52.268;6.770;2022-09-09T02:54:28;20.70;73.00
21353;DHT22;10834;52.268;6.770;2022-09-09T02:57:17;20.70;73.00
21353;DHT22;10834;52.268;6.770;2022-09-09T03:00:05;20.70;73.00
21353;DHT22;10834;52.268;6.770;2022-09-09T03:02:52;20.70;73.00
21353;DHT22;10834;52.268;6.770;2022-09-09T03:05:40;20.70;73.00
21353;DHT22;10834;52.268;6.770;2022-09-09T03:08:26;20.70;73.00
21353;DHT22;10834;52.268;6.770;2022-09-09T03:11:13;20.70;73.00
21353;DHT22;10834;52.268;6.770;2022-09-09T03:13:59;20.70;73.10
21353;DHT22;10834;52.268;6.770;2022-09-09T03:16:45;20.60;73.00
21353;DHT22;10834;52.268;6.770;2022-09-09T03:19:32;20.70;73.20
21353;DHT22;10834;52.268;6.770;2022-09-09T03:22:18;20.60;73.10
21353;DHT22;10834;52.268;6.770;2022-09-09T03:25:04;20.60;73.20
21353;DHT22;10834;52.268;6.770;2022-09-09T03:27:52;20.60;73.20
21353;DHT22;10834;52.268;6.770;2022-09-09T03:30:39;20.60;73.20
21353;DHT22;10834;52.268;6.770;2022-09-09T03:33:26;20.60;73.30
21353;DHT22;10834;52.268;6.770;2022-09-09T03:36:12;20.60;73.20
21353;DHT22;10834;52.268;6.770;2022-09-09T03:38:58;20.60;74.00
21353;DHT22;10834;52.268;6.770;2022-09-09T03:41:44;20.60;73.30
21353;DHT22;10834;52.268;6.770;2022-09-09T03:44:32;20.60;73.30
21353;DHT22;10834;52.268;6.770;2022-09-09T03:47:19;20.50;73.30
21353;DHT22;10834;52.268;6.770;2022-09-09T03:50:06;20.50;73.30
21353;DHT22;10834;52.268;6.770;2022-09-09T03:52:55;20.50;73.30
21353;DHT22;10834;52.268;6.770;2022-09-09T03:55:48;20.50;73.30
21353;DHT22;10834;52.268;6.770;2022-09-09T03:58:36;20.50;73.30
21353;DHT22;10834;52.268;6.770;2022-09-09T04:01:23;20.50;74.00
21353;DHT22;10834;52.268;6.770;2022-09-09T04:04:09;20.50;73.30
21353;DHT22;10834;52.268;6.770;2022-09-09T04:06:55;20.50;74.00
21353;DHT22;10834;52.268;6.770;2022-09-09T04:09:41;20.50;73.30
21353;DHT22;10834;52.268;6.770;2022-09-09T04:12:27;20.50;73.30
21353;DHT22;10834;52.268;6.770;2022-09-09T04:15:13;20.40;73.30
21353;DHT22;10834;52.268;6.770;2022-09-09T04:17:59;20.40;73.30
21353;DHT22;10834;52.268;6.770;2022-09-09T04:20:50;20.40;73.30
21353;DHT22;10834;52.268;6.770;2022-09-09T04:23:36;20.40;73.30
21353;DHT22;10834;52.268;6.770;2022-09-09T04:26:22;20.40;73.20
21353;DHT22;10834;52.268;6.770;2022-09-09T04:29:08;20.40;73.20
21353;DHT22;10834;52.268;6.770;2022-09-09T04:31:54;20.40;73.20
21353;DHT22;10834;52.268;6.770;2022-09-09T04:34:40;20.40;73.20
21353;DHT22;10834;52.268;6.770;2022-09-09T04:37:27;20.40;73.20
21353;DHT22;10834;52.268;6.770;2022-09-09T04:40:13;20.40;73.20
21353;DHT22;10834;52.268;6.770;2022-09-09T04:43:01;20.40;73.20
21353;DHT22;10834;52.268;6.770;2022-09-09T04:45:50;20.30;73.20
21353;DHT22;10834;52.268;6.770;2022-09-09T04:48:39;20.30;73.10
21353;DHT22;10834;52.268;6.770;2022-09-09T04:51:25;20.30;73.20
21353;DHT22;10834;52.268;6.770;2022-09-09T04:54:12;20.30;73.10
21353;DHT22;10834;52.268;6.770;2022-09-09T04:56:58;20.30;73.20
21353;DHT22;10834;52.268;6.770;2022-09-09T04:59:44;20.30;73.20
21353;DHT22;10834;52.268;6.770;2022-09-09T05:02:31;20.30;73.20
21353;DHT22;10834;52.268;6.770;2022-09-09T05:05:18;20.30;73.30
21353;DHT22;10834;52.268;6.770;2022-09-09T05:08:06;20.30;73.30
21353;DHT22;10834;52.268;6.770;2022-09-09T05:10:52;20.20;73.20
21353;DHT22;10834;52.268;6.770;2022-09-09T05:13:38;20.20;73.30
21353;DHT22;10834;52.268;6.770;2022-09-09T05:16:24;20.20;73.30
21353;DHT22;10834;52.268;6.770;2022-09-09T05:19:11;20.20;73.30
21353;DHT22;10834;52.268;6.770;2022-09-09T05:21:57;20.20;73.40
21353;DHT22;10834;52.268;6.770;2022-09-09T05:24:43;20.20;73.50
21353;DHT22;10834;52.268;6.770;2022-09-09T05:27:30;20.20;73.50
21353;DHT22;10834;52.268;6.770;2022-09-09T05:30:19;20.20;73.50
21353;DHT22;10834;52.268;6.770;2022-09-09T05:33:05;20.20;73.60
21353;DHT22;10834;52.268;6.770;2022-09-09T05:36:00;20.20;73.60
21353;DHT22;10834;52.268;6.770;2022-09-09T05:38:48;20.20;73.70
21353;DHT22;10834;52.268;6.770;2022-09-09T05:41:34;20.20;73.80
21353;DHT22;10834;52.268;6.770;2022-09-09T05:44:21;20.20;73.80
21353;DHT22;10834;52.268;6.770;2022-09-09T05:47:09;20.10;73.80
21353;DHT22;10834;52.268;6.770;2022-09-09T05:49:55;20.20;74.00
21353;DHT22;10834;52.268;6.770;2022-09-09T05:52:41;20.10;74.00
21353;DHT22;10834;52.268;6.770;2022-09-09T05:55:27;20.10;74.00
21353;DHT22;10834;52.268;6.770;2022-09-09T05:58:13;20.10;74.00
21353;DHT22;10834;52.268;6.770;2022-09-09T06:01:08;20.10;74.10
21353;DHT22;10834;52.268;6.770;2022-09-09T06:03:55;20.10;74.10
21353;DHT22;10834;52.268;6.770;2022-09-09T06:06:42;20.10;74.20
21353;DHT22;10834;52.268;6.770;2022-09-09T06:09:28;20.10;74.20
21353;DHT22;10834;52.268;6.770;2022-09-09T06:12:16;20.20;75.00
21353;DHT22;10834;52.268;6.770;2022-09-09T06:15:02;20.10;74.30
21353;DHT22;10834;52.268;6.770;2022-09-09T06:17:54;20.10;74.30
21353;DHT22;10834;52.268;6.770;2022-09-09T06:20:41;20.10;74.30
21353;DHT22;10834;52.268;6.770;2022-09-09T06:23:27;20.10;74.40
21353;DHT22;10834;52.268;6.770;2022-09-09T06:26:20;20.10;74.40
21353;DHT22;10834;52.268;6.770;2022-09-09T06:29:06;20.20;74.40
21353;DHT22;10834;52.268;6.770;2022-09-09T06:31:53;20.10;74.40
21353;DHT22;10834;52.268;6.770;2022-09-09T06:34:38;20.10;74.40
21353;DHT22;10834;52.268;6.770;2022-09-09T06:37:25;20.10;74.40
21353;DHT22;10834;52.268;6.770;2022-09-09T06:40:12;20.10;74.40
21353;DHT22;10834;52.268;6.770;2022-09-09T06:43:01;20.10;74.40
21353;DHT22;10834;52.268;6.770;2022-09-09T06:45:59;20.10;74.40
21353;DHT22;10834;52.268;6.770;2022-09-09T06:48:46;20.10;74.40
21353;DHT22;10834;52.268;6.770;2022-09-09T06:51:35;20.10;74.50
21353;DHT22;10834;52.268;6.770;2022-09-09T06:54:21;20.10;74.40
21353;DHT22;10834;52.268;6.770;2022-09-09T06:57:09;20.10;74.50
21353;DHT22;10834;52.268;6.770;2022-09-09T06:59:55;20.10;74.40
21353;DHT22;10834;52.268;6.770;2022-09-09T07:02:41;20.10;74.40
21353;DHT22;10834;52.268;6.770;2022-09-09T07:05:27;20.10;74.40
21353;DHT22;10834;52.268;6.770;2022-09-09T07:08:14;20.10;74.40
21353;DHT22;10834;52.268;6.770;2022-09-09T07:11:04;20.10;74.40
21353;DHT22;10834;52.268;6.770;2022-09-09T07:13:51;20.10;74.50
21353;DHT22;10834;52.268;6.770;2022-09-09T07:16:37;20.20;74.60
21353;DHT22;10834;52.268;6.770;2022-09-09T07:19:23;20.10;74.50
21353;DHT22;10834;52.268;6.770;2022-09-09T07:22:09;20.20;74.60
21353;DHT22;10834;52.268;6.770;2022-09-09T07:24:56;20.20;74.60
21353;DHT22;10834;52.268;6.770;2022-09-09T07:27:42;20.20;74.80
21353;DHT22;10834;52.268;6.770;2022-09-09T07:30:28;20.20;74.80
21353;DHT22;10834;52.268;6.770;2022-09-09T07:33:14;20.20;74.80
21353;DHT22;10834;52.268;6.770;2022-09-09T07:38:52;20.20;74.90
21353;DHT22;10834;52.268;6.770;2022-09-09T07:41:43;20.20;74.90
21353;DHT22;10834;52.268;6.770;2022-09-09T07:44:30;20.20;75.00
21353;DHT22;10834;52.268;6.770;2022-09-09T07:47:17;20.20;75.10
21353;DHT22;10834;52.268;6.770;2022-09-09T07:50:04;20.20;75.20
21353;DHT22;10834;52.268;6.770;2022-09-09T07:52:53;20.30;75.30
21353;DHT22;10834;52.268;6.770;2022-09-09T07:55:39;20.30;76.10
21353;DHT22;10834;52.268;6.770;2022-09-09T07:58:26;20.30;75.40
21353;DHT22;10834;52.268;6.770;2022-09-09T08:01:15;20.30;75.40
21353;DHT22;10834;52.268;6.770;2022-09-09T08:04:05;20.30;75.50
21353;DHT22;10834;52.268;6.770;2022-09-09T08:06:58;20.40;75.50
21353;DHT22;10834;52.268;6.770;2022-09-09T08:09:45;20.40;75.50
21353;DHT22;10834;52.268;6.770;2022-09-09T08:12:31;20.40;75.60
21353;DHT22;10834;52.268;6.770;2022-09-09T08:15:18;20.40;75.60
21353;DHT22;10834;52.268;6.770;2022-09-09T08:18:04;20.50;75.60
21353;DHT22;10834;52.268;6.770;2022-09-09T08:20:50;20.50;75.60
21353;DHT22;10834;52.268;6.770;2022-09-09T08:23:36;20.50;75.70
21353;DHT22;10834;52.268;6.770;2022-09-09T08:26:30;20.50;75.70
21353;DHT22;10834;52.268;6.770;2022-09-09T08:29:17;20.50;75.80
21353;DHT22;10834;52.268;6.770;2022-09-09T08:32:03;20.50;75.70
21353;DHT22;10834;52.268;6.770;2022-09-09T08:34:50;20.50;75.80
21353;DHT22;10834;52.268;6.770;2022-09-09T08:37:37;20.50;75.80
21353;DHT22;10834;52.268;6.770;2022-09-09T08:40:28;20.50;75.90
21353;DHT22;10834;52.268;6.770;2022-09-09T08:43:18;20.50;75.90
21353;DHT22;10834;52.268;6.770;2022-09-09T08:46:22;20.50;75.90
21353;DHT22;10834;52.268;6.770;2022-09-09T08:58:30;20.60;76.50
21353;DHT22;10834;52.268;6.770;2022-09-09T09:04:39;20.60;76.50
21353;DHT22;10834;52.268;6.770;2022-09-09T09:08:09;20.60;76.70
21353;DHT22;10834;52.268;6.770;2022-09-09T09:11:01;20.60;76.80
21353;DHT22;10834;52.268;6.770;2022-09-09T09:14:09;20.60;76.80
21353;DHT22;10834;52.268;6.770;2022-09-09T09:19:51;20.70;76.70
21353;DHT22;10834;52.268;6.770;2022-09-09T09:22:48;20.80;76.70
21353;DHT22;10834;52.268;6.770;2022-09-09T09:25:38;20.80;76.50
21353;DHT22;10834;52.268;6.770;2022-09-09T09:28:29;20.80;76.50
21353;DHT22;10834;52.268;6.770;2022-09-09T09:31:18;20.80;76.70
21353;DHT22;10834;52.268;6.770;2022-09-09T09:34:08;20.90;76.80
21353;DHT22;10834;52.268;6.770;2022-09-09T09:36:56;20.90;76.80
21353;DHT22;10834;52.268;6.770;2022-09-09T09:39:42;20.90;76.70
21353;DHT22;10834;52.268;6.770;2022-09-09T09:42:29;20.90;76.60
21353;DHT22;10834;52.268;6.770;2022-09-09T09:48:19;21.00;77.10
21353;DHT22;10834;52.268;6.770;2022-09-09T09:51:09;21.00;76.20
21353;DHT22;10834;52.268;6.770;2022-09-09T09:57:12;21.10;75.80
21353;DHT22;10834;52.268;6.770;2022-09-09T10:00:26;21.10;75.50
21353;DHT22;10834;52.268;6.770;2022-09-09T10:03:26;21.10;75.20
21353;DHT22;10834;52.268;6.770;2022-09-09T10:06:13;21.20;75.00
21353;DHT22;10834;52.268;6.770;2022-09-09T10:08:59;21.20;74.90
21353;DHT22;10834;52.268;6.770;2022-09-09T10:17:40;21.20;74.10
21353;DHT22;10834;52.268;6.770;2022-09-09T10:21:01;21.30;74.10
21353;DHT22;10834;52.268;6.770;2022-09-09T10:27:58;21.30;73.60
21353;DHT22;10834;52.268;6.770;2022-09-09T10:30:24;21.30;73.50
21353;DHT22;10834;52.268;6.770;2022-09-09T10:33:50;21.30;73.30
21353;DHT22;10834;52.268;6.770;2022-09-09T10:36:42;21.30;73.10
21353;DHT22;10834;52.268;6.770;2022-09-09T10:39:36;21.40;73.00
21353;DHT22;10834;52.268;6.770;2022-09-09T10:42:27;21.30;72.80
21353;DHT22;10834;52.268;6.770;2022-09-09T10:45:30;21.40;72.80
21353;DHT22;10834;52.268;6.770;2022-09-09T10:57:47;21.40;72.60
21353;DHT22;10834;52.268;6.770;2022-09-09T11:00:56;21.40;72.50
21353;DHT22;10834;52.268;6.770;2022-09-09T11:03:47;21.40;72.50
21353;DHT22;10834;52.268;6.770;2022-09-09T11:06:40;21.50;72.50
21353;DHT22;10834;52.268;6.770;2022-09-09T11:09:32;21.50;72.50
21353;DHT22;10834;52.268;6.770;2022-09-09T11:12:23;21.40;73.00
21353;DHT22;10834;52.268;6.770;2022-09-09T11:15:28;21.50;72.30
21353;DHT22;10834;52.268;6.770;2022-09-09T11:18:19;21.50;72.20
21353;DHT22;10834;52.268;6.770;2022-09-09T11:42:20;21.50;71.60
21353;DHT22;10834;52.268;6.770;2022-09-09T11:45:11;21.60;71.70
21353;DHT22;10834;52.268;6.770;2022-09-09T11:48:03;21.50;71.80
21353;DHT22;10834;52.268;6.770;2022-09-09T11:54:46;21.60;71.90
21353;DHT22;10834;52.268;6.770;2022-09-09T11:57:36;21.60;71.70
21353;DHT22;10834;52.268;6.770;2022-09-09T12:03:45;21.60;71.60
21353;DHT22;10834;52.268;6.770;2022-09-09T12:06:41;21.60;71.40
21353;DHT22;10834;52.268;6.770;2022-09-09T12:12:37;21.60;70.90
21353;DHT22;10834;52.268;6.770;2022-09-09T12:15:28;21.60;70.90
21353;DHT22;10834;52.268;6.770;2022-09-09T12:18:22;21.60;70.70
21353;DHT22;10834;52.268;6.770;2022-09-09T12:24:10;21.60;70.60
21353;DHT22;10834;52.268;6.770;2022-09-09T12:27:24;21.60;70.40
21353;DHT22;10834;52.268;6.770;2022-09-09T12:30:15;21.60;70.30
21353;DHT22;10834;52.268;6.770;2022-09-09T12:33:08;21.60;70.40
21353;DHT22;10834;52.268;6.770;2022-09-09T12:35:57;21.60;70.50
21353;DHT22;10834;52.268;6.770;2022-09-09T12:38:45;21.60;70.60
21353;DHT22;10834;52.268;6.770;2022-09-09T12:41:31;21.60;70.70
21353;DHT22;10834;52.268;6.770;2022-09-09T12:44:17;21.60;70.70
21353;DHT22;10834;52.268;6.770;2022-09-09T12:47:03;21.70;70.80
21353;DHT22;10834;52.268;6.770;2022-09-09T12:49:50;21.70;70.90
21353;DHT22;10834;52.268;6.770;2022-09-09T12:52:37;21.70;70.90
21353;DHT22;10834;52.268;6.770;2022-09-09T12:55:28;21.70;70.90
21353;DHT22;10834;52.268;6.770;2022-09-09T12:58:17;21.70;70.90
21353;DHT22;10834;52.268;6.770;2022-09-09T13:01:05;21.70;70.90
21353;DHT22;10834;52.268;6.770;2022-09-09T13:03:52;21.70;71.00
21353;DHT22;10834;52.268;6.770;2022-09-09T13:06:38;21.70;71.10
21353;DHT22;10834;52.268;6.770;2022-09-09T13:09:24;21.70;71.10
21353;DHT22;10834;52.268;6.770;2022-09-09T13:12:16;21.70;71.10
21353;DHT22;10834;52.268;6.770;2022-09-09T13:15:04;21.80;71.20
21353;DHT22;10834;52.268;6.770;2022-09-09T13:17:55;21.80;71.30
21353;DHT22;10834;52.268;6.770;2022-09-09T13:20:47;21.80;71.40
21353;DHT22;10834;52.268;6.770;2022-09-09T13:23:36;21.80;71.50
21353;DHT22;10834;52.268;6.770;2022-09-09T13:26:26;21.80;71.60
21353;DHT22;10834;52.268;6.770;2022-09-09T13:29:19;21.80;71.60
21353;DHT22;10834;52.268;6.770;2022-09-09T13:32:07;21.80;71.70
21353;DHT22;10834;52.268;6.770;2022-09-09T13:35:00;21.80;71.70
21353;DHT22;10834;52.268;6.770;2022-09-09T13:37:49;21.80;71.70
21353;DHT22;10834;52.268;6.770;2022-09-09T13:40:35;21.80;71.80
21353;DHT22;10834;52.268;6.770;2022-09-09T13:43:25;21.80;71.90
21353;DHT22;10834;52.268;6.770;2022-09-09T13:47:00;21.80;71.90
21353;DHT22;10834;52.268;6.770;2022-09-09T13:49:47;21.80;71.90
21353;DHT22;10834;52.268;6.770;2022-09-09T13:52:33;21.80;72.00
21353;DHT22;10834;52.268;6.770;2022-09-09T13:55:20;21.80;72.20
21353;DHT22;10834;52.268;6.770;2022-09-09T13:58:16;21.80;72.60
21353;DHT22;10834;52.268;6.770;2022-09-09T14:01:03;21.80;73.20
21353;DHT22;10834;52.268;6.770;2022-09-09T14:03:49;21.80;73.60
21353;DHT22;10834;52.268;6.770;2022-09-09T14:06:37;21.80;74.10
21353;DHT22;10834;52.268;6.770;2022-09-09T14:09:24;21.80;74.60
21353;DHT22;10834;52.268;6.770;2022-09-09T14:12:11;21.80;74.80
21353;DHT22;10834;52.268;6.770;2022-09-09T14:14:57;21.80;75.00
21353;DHT22;10834;52.268;6.770;2022-09-09T14:17:45;21.80;75.10
21353;DHT22;10834;52.268;6.770;2022-09-09T14:20:31;21.80;75.10
21353;DHT22;10834;52.268;6.770;2022-09-09T14:23:17;21.80;75.10
21353;DHT22;10834;52.268;6.770;2022-09-09T14:26:05;21.80;75.10
21353;DHT22;10834;52.268;6.770;2022-09-09T14:28:51;21.70;75.00
21353;DHT22;10834;52.268;6.770;2022-09-09T14:31:37;21.70;74.90
21353;DHT22;10834;52.268;6.770;2022-09-09T14:34:23;21.70;75.70
21353;DHT22;10834;52.268;6.770;2022-09-09T14:37:09;21.70;75.10
21353;DHT22;10834;52.268;6.770;2022-09-09T14:39:55;21.70;75.20
21353;DHT22;10834;52.268;6.770;2022-09-09T14:42:41;21.70;75.30
21353;DHT22;10834;52.268;6.770;2022-09-09T14:45:28;21.70;75.30
21353;DHT22;10834;52.268;6.770;2022-09-09T14:48:14;21.70;75.30
21353;DHT22;10834;52.268;6.770;2022-09-09T14:51:07;21.70;75.40
21353;DHT22;10834;52.268;6.770;2022-09-09T14:53:55;21.70;75.70
21353;DHT22;10834;52.268;6.770;2022-09-09T14:56:42;21.70;75.70
21353;DHT22;10834;52.268;6.770;2022-09-09T14:59:28;21.70;75.70
21353;DHT22;10834;52.268;6.770;2022-09-09T15:02:14;21.60;75.50
21353;DHT22;10834;52.268;6.770;2022-09-09T15:05:00;21.70;75.60
21353;DHT22;10834;52.268;6.770;2022-09-09T15:07:47;21.60;75.50
21353;DHT22;10834;52.268;6.770;2022-09-09T15:10:34;21.60;75.40
21353;DHT22;10834;52.268;6.770;2022-09-09T15:13:20;21.60;75.40
21353;DHT22;10834;52.268;6.770;2022-09-09T15:16:14;21.60;75.60
21353;DHT22;10834;52.268;6.770;2022-09-09T15:19:01;21.60;75.60
21353;DHT22;10834;52.268;6.770;2022-09-09T15:21:47;21.60;75.60
21353;DHT22;10834;52.268;6.770;2022-09-09T15:24:34;21.60;75.70
21353;DHT22;10834;52.268;6.770;2022-09-09T15:27:20;21.60;75.90
21353;DHT22;10834;52.268;6.770;2022-09-09T15:30:07;21.60;75.90
21353;DHT22;10834;52.268;6.770;2022-09-09T15:32:53;21.60;75.90
21353;DHT22;10834;52.268;6.770;2022-09-09T15:35:40;21.60;75.90
21353;DHT22;10834;52.268;6.770;2022-09-09T15:38:26;21.50;75.90
21353;DHT22;10834;52.268;6.770;2022-09-09T15:41:13;21.50;76.20
21353;DHT22;10834;52.268;6.770;2022-09-09T15:44:00;21.50;76.10
21353;DHT22;10834;52.268;6.770;2022-09-09T15:46:49;21.50;76.00
21353;DHT22;10834;52.268;6.770;2022-09-09T15:49:35;21.50;76.00
21353;DHT22;10834;52.268;6.770;2022-09-09T15:52:21;21.50;76.00
21353;DHT22;10834;52.268;6.770;2022-09-09T15:55:08;21.50;76.00
21353;DHT22;10834;52.268;6.770;2022-09-09T15:57:54;21.50;76.00
21353;DHT22;10834;52.268;6.770;2022-09-09T16:00:40;21.50;76.10
21353;DHT22;10834;52.268;6.770;2022-09-09T16:03:26;21.50;76.30
21353;DHT22;10834;52.268;6.770;2022-09-09T16:06:17;21.50;76.40
21353;DHT22;10834;52.268;6.770;2022-09-09T16:09:06;21.50;76.30
21353;DHT22;10834;52.268;6.770;2022-09-09T16:11:52;21.50;76.30
21353;DHT22;10834;52.268;6.770;2022-09-09T16:14:39;21.50;76.20
21353;DHT22;10834;52.268;6.770;2022-09-09T16:17:26;21.50;76.00
21353;DHT22;10834;52.268;6.770;2022-09-09T16:20:13;21.50;75.90
21353;DHT22;10834;52.268;6.770;2022-09-09T16:22:59;21.50;75.70
21353;DHT22;10834;52.268;6.770;2022-09-09T16:25:56;21.50;75.60
21353;DHT22;10834;52.268;6.770;2022-09-09T16:28:42;21.50;75.60
21353;DHT22;10834;52.268;6.770;2022-09-09T16:31:30;21.40;75.40
21353;DHT22;10834;52.268;6.770;2022-09-09T16:34:18;21.50;75.40
21353;DHT22;10834;52.268;6.770;2022-09-09T16:37:04;21.50;75.20
21353;DHT22;10834;52.268;6.770;2022-09-09T16:39:50;21.50;75.20
21353;DHT22;10834;52.268;6.770;2022-09-09T16:42:36;21.50;75.10
21353;DHT22;10834;52.268;6.770;2022-09-09T16:45:22;21.50;75.10
21353;DHT22;10834;52.268;6.770;2022-09-09T16:48:09;21.50;74.90
21353;DHT22;10834;52.268;6.770;2022-09-09T16:51:01;21.50;74.90
21353;DHT22;10834;52.268;6.770;2022-09-09T16:53:47;21.50;74.90
21353;DHT22;10834;52.268;6.770;2022-09-09T16:56:36;21.50;74.80
21353;DHT22;10834;52.268;6.770;2022-09-09T16:59:27;21.50;74.80
21353;DHT22;10834;52.268;6.770;2022-09-09T17:02:13;21.50;74.80
21353;DHT22;10834;52.268;6.770;2022-09-09T17:04:59;21.50;74.70
21353;DHT22;10834;52.268;6.770;2022-09-09T17:07:45;21.50;74.70
21353;DHT22;10834;52.268;6.770;2022-09-09T17:10:31;21.50;74.60
21353;DHT22;10834;52.268;6.770;2022-09-09T17:13:17;21.50;74.60
21353;DHT22;10834;52.268;6.770;2022-09-09T17:16:06;21.50;74.60
21353;DHT22;10834;52.268;6.770;2022-09-09T17:18:53;21.40;74.50
21353;DHT22;10834;52.268;6.770;2022-09-09T17:21:40;21.40;74.50
21353;DHT22;10834;52.268;6.770;2022-09-09T17:24:27;21.50;74.60
21353;DHT22;10834;52.268;6.770;2022-09-09T17:27:14;21.40;74.50
21353;DHT22;10834;52.268;6.770;2022-09-09T17:30:00;21.40;74.50
21353;DHT22;10834;52.268;6.770;2022-09-09T17:32:46;21.50;74.60
21353;DHT22;10834;52.268;6.770;2022-09-09T17:35:32;21.40;74.70
21353;DHT22;10834;52.268;6.770;2022-09-09T17:38:19;21.40;74.70
21353;DHT22;10834;52.268;6.770;2022-09-09T17:41:11;21.40;74.70
21353;DHT22;10834;52.268;6.770;2022-09-09T17:43:58;21.40;75.40
21353;DHT22;10834;52.268;6.770;2022-09-09T17:46:45;21.40;74.60
21353;DHT22;10834;52.268;6.770;2022-09-09T17:49:31;21.40;74.60
21353;DHT22;10834;52.268;6.770;2022-09-09T17:52:17;21.40;74.60
21353;DHT22;10834;52.268;6.770;2022-09-09T17:55:04;21.40;74.70
21353;DHT22;10834;52.268;6.770;2022-09-09T17:57:50;21.40;74.60
21353;DHT22;10834;52.268;6.770;2022-09-09T18:00:36;21.40;74.70
21353;DHT22;10834;52.268;6.770;2022-09-09T18:03:23;21.40;74.80
21353;DHT22;10834;52.268;6.770;2022-09-09T18:06:11;21.40;74.80
21353;DHT22;10834;52.268;6.770;2022-09-09T18:09:05;21.40;74.80
21353;DHT22;10834;52.268;6.770;2022-09-09T18:11:55;21.40;74.80
21353;DHT22;10834;52.268;6.770;2022-09-09T18:14:41;21.40;74.90
21353;DHT22;10834;52.268;6.770;2022-09-09T18:17:27;21.40;74.90
21353;DHT22;10834;52.268;6.770;2022-09-09T18:20:15;21.30;74.80
21353;DHT22;10834;52.268;6.770;2022-09-09T18:23:02;21.30;74.80
21353;DHT22;10834;52.268;6.770;2022-09-09T18:25:47;21.40;74.90
21353;DHT22;10834;52.268;6.770;2022-09-09T18:28:34;21.30;74.80
21353;DHT22;10834;52.268;6.770;2022-09-09T18:31:21;21.30;75.60
21353;DHT22;10834;52.268;6.770;2022-09-09T18:34:13;21.30;74.90
21353;DHT22;10834;52.268;6.770;2022-09-09T18:36:59;21.30;74.80
21353;DHT22;10834;52.268;6.770;2022-09-09T18:39:45;21.30;74.90
21353;DHT22;10834;52.268;6.770;2022-09-09T18:42:32;21.30;74.90
21353;DHT22;10834;52.268;6.770;2022-09-09T18:45:18;21.30;74.90
21353;DHT22;10834;52.268;6.770;2022-09-09T18:48:05;21.30;74.90
21353;DHT22;10834;52.268;6.770;2022-09-09T18:50:51;21.30;75.00
21353;DHT22;10834;52.268;6.770;2022-09-09T18:53:38;21.30;75.10
21353;DHT22;10834;52.268;6.770;2022-09-09T18:56:27;21.30;75.10
21353;DHT22;10834;52.268;6.770;2022-09-09T18:59:16;21.30;75.20
21353;DHT22;10834;52.268;6.770;2022-09-09T19:02:05;21.30;75.20
21353;DHT22;10834;52.268;6.770;2022-09-09T19:04:51;21.20;75.20
21353;DHT22;10834;52.268;6.770;2022-09-09T19:07:38;21.20;75.30
21353;DHT22;10834;52.268;6.770;2022-09-09T19:10:26;21.30;75.40
21353;DHT22;10834;52.268;6.770;2022-09-09T19:13:12;21.20;75.40
21353;DHT22;10834;52.268;6.770;2022-09-09T19:16:06;21.30;75.60
21353;DHT22;10834;52.268;6.770;2022-09-09T19:18:52;21.20;75.50
21353;DHT22;10834;52.268;6.770;2022-09-09T19:21:39;21.20;75.50
21353;DHT22;10834;52.268;6.770;2022-09-09T19:24:29;21.20;75.60
21353;DHT22;10834;52.268;6.770;2022-09-09T19:27:15;21.20;75.70
21353;DHT22;10834;52.268;6.770;2022-09-09T19:30:01;21.20;75.70
21353;DHT22;10834;52.268;6.770;2022-09-09T19:32:47;21.20;75.70
21353;DHT22;10834;52.268;6.770;2022-09-09T19:35:33;21.20;75.70